Time;durP1;ratioP1;P1;durP2;ratioP2;P2;SDS_P1;SDS_P2;PMS_P1;PMS_P2;Temp;Humidity;BMP_temperature;BMP_pressure;BME280_temperature;BME280_humidity;BME280_pressure;Samples;Min_cycle;Max_cycle;Signal;HPM_P1;HPM_P2
2021/09/06 00:00:21;;;;;;;5.85;4.70;;;15.00;73.20;;;;;;5001577;28;20064;-68
2021/09/06 00:02:47;;;;;;;5.53;5.00;;;14.90;73.30;;;;;;4998139;28;20034;-69
2021/09/06 00:05:13;;;;;;;6.60;4.82;;;15.00;73.50;;;;;;5000922;28;20431;-69
2021/09/06 00:07:40;;;;;;;5.30;4.78;;;14.90;73.50;;;;;;4999607;28;20030;-68
2021/09/06 00:10:37;;;;;;;5.32;4.65;;;14.90;73.70;;;;;;4998219;28;20030;-68
2021/09/06 00:13:07;;;;;;;5.60;4.57;;;14.80;74.90;;;;;;4994440;28;20030;-69
2021/09/06 00:15:34;;;;;;;7.05;4.63;;;14.80;73.90;;;;;;5015351;28;20185;-67
2021/09/06 00:18:01;;;;;;;5.05;4.55;;;14.80;73.70;;;;;;4999089;28;20037;-69
2021/09/06 00:20:27;;;;;;;5.65;4.68;;;14.80;73.50;;;;;;4997314;28;20037;-68
2021/09/06 00:22:53;;;;;;;5.50;4.88;;;14.80;73.60;;;;;;5000339;28;20033;-68
2021/09/06 00:25:20;;;;;;;7.47;5.47;;;14.80;73.50;;;;;;5002798;28;20400;-70
2021/09/06 00:27:46;;;;;;;5.90;5.30;;;14.80;73.60;;;;;;5000791;28;20042;-68
2021/09/06 00:30:12;;;;;;;6.45;4.70;;;14.80;73.50;;;;;;5001562;28;20126;-69
2021/09/06 00:32:37;;;;;;;7.03;5.50;;;14.90;73.50;;;;;;4995596;28;20061;-68
2021/09/06 00:35:03;;;;;;;5.63;5.05;;;14.80;73.50;;;;;;5000550;28;20103;-68
2021/09/06 00:37:29;;;;;;;7.07;5.35;;;14.90;73.50;;;;;;5006024;28;20038;-68
2021/09/06 00:39:54;;;;;;;5.47;4.88;;;14.80;73.30;;;;;;4998521;28;20029;-69
2021/09/06 00:42:21;;;;;;;7.18;5.07;;;14.80;73.30;;;;;;4998392;28;20516;-69
2021/09/06 00:44:47;;;;;;;8.15;5.18;;;14.80;73.20;;;;;;5002108;28;20116;-68
2021/09/06 00:47:13;;;;;;;5.85;4.95;;;14.80;73.30;;;;;;4998181;28;20121;-69
2021/09/06 00:49:38;;;;;;;5.00;4.50;;;14.80;73.30;;;;;;5000513;28;20551;-68
2021/09/06 00:52:04;;;;;;;6.90;4.65;;;14.80;74.20;;;;;;4998581;28;20034;-69
2021/09/06 00:54:31;;;;;;;8.00;4.93;;;14.80;73.40;;;;;;5001195;28;20034;-69
2021/09/06 00:56:57;;;;;;;5.60;4.85;;;14.80;73.30;;;;;;4998532;28;20605;-69
2021/09/06 00:59:23;;;;;;;6.00;4.97;;;14.80;73.40;;;;;;5001337;28;20039;-68
2021/09/06 01:01:48;;;;;;;6.28;4.80;;;14.70;73.30;;;;;;5000263;28;20110;-69
2021/09/06 01:04:14;;;;;;;6.15;5.50;;;14.70;73.30;;;;;;5001288;28;20035;-68
2021/09/06 01:06:40;;;;;;;7.75;4.78;;;14.70;73.50;;;;;;4998212;28;20031;-69
2021/09/06 01:09:05;;;;;;;6.82;5.68;;;14.60;73.70;;;;;;4998009;28;20504;-69
2021/09/06 01:11:31;;;;;;;6.03;5.38;;;14.60;73.80;;;;;;4998557;28;20030;-68
2021/09/06 01:13:57;;;;;;;9.05;5.70;;;14.50;73.90;;;;;;4999176;28;20561;-68
2021/09/06 01:16:23;;;;;;;5.70;5.00;;;14.50;74.20;;;;;;5013134;28;20030;-69
2021/09/06 01:18:49;;;;;;;6.05;5.32;;;14.40;74.20;;;;;;5012775;28;20412;-69
2021/09/06 01:21:15;;;;;;;5.85;5.25;;;14.40;74.30;;;;;;4999303;28;20038;-68
2021/09/06 01:23:41;;;;;;;7.10;5.28;;;14.40;74.40;;;;;;5000095;28;20037;-69
2021/09/06 01:26:07;;;;;;;6.63;5.25;;;14.30;74.40;;;;;;4999241;28;20061;-68
2021/09/06 01:28:34;;;;;;;5.60;5.00;;;14.30;75.30;;;;;;5000121;28;20038;-68
2021/09/06 01:31:00;;;;;;;7.30;5.55;;;14.30;74.40;;;;;;4999836;28;20095;-68
2021/09/06 01:33:26;;;;;;;5.60;5.03;;;14.40;74.60;;;;;;5000715;28;20048;-69
2021/09/06 01:35:52;;;;;;;5.95;5.20;;;14.40;74.40;;;;;;4996419;28;20425;-66
2021/09/06 01:38:17;;;;;;;6.18;5.07;;;14.30;74.20;;;;;;4999795;28;20140;-69
2021/09/06 01:40:43;;;;;;;5.80;5.18;;;14.30;74.30;;;;;;4999399;28;20038;-68
2021/09/06 01:43:09;;;;;;;5.68;5.05;;;14.30;74.40;;;;;;4999656;28;20026;-67
2021/09/06 01:45:34;;;;;;;7.75;5.55;;;14.30;74.40;;;;;;4997771;28;20099;-69
2021/09/06 01:48:00;;;;;;;7.13;5.70;;;14.30;74.50;;;;;;4999965;28;20044;-68
2021/09/06 01:50:26;;;;;;;6.20;5.60;;;14.20;74.50;;;;;;4996174;28;20496;-68
2021/09/06 01:52:52;;;;;;;6.00;5.40;;;14.20;74.50;;;;;;5000044;28;20034;-69
2021/09/06 01:55:17;;;;;;;7.15;5.68;;;14.10;74.60;;;;;;4999652;28;20034;-68
2021/09/06 01:57:43;;;;;;;7.80;6.32;;;14.10;74.70;;;;;;4994889;28;20415;-69
2021/09/06 02:00:09;;;;;;;7.82;6.45;;;14.10;74.70;;;;;;4997286;28;20049;-69
2021/09/06 02:02:34;;;;;;;8.13;6.15;;;14.10;74.90;;;;;;4998880;28;20104;-68
2021/09/06 02:05:00;;;;;;;7.05;6.07;;;14.00;75.00;;;;;;5001365;28;20041;-68
2021/09/06 02:07:26;;;;;;;6.97;5.85;;;14.00;75.10;;;;;;5002646;28;20037;-67
2021/09/06 02:09:51;;;;;;;7.13;6.25;;;13.90;75.30;;;;;;5002362;28;20030;-68
2021/09/06 02:12:17;;;;;;;7.80;6.25;;;13.90;75.40;;;;;;5002883;28;20120;-68
2021/09/06 02:14:43;;;;;;;7.70;5.60;;;13.90;75.60;;;;;;5004628;28;20048;-69
2021/09/06 02:17:08;;;;;;;9.75;6.35;;;13.80;75.60;;;;;;5001881;28;20037;-68
2021/09/06 02:19:34;;;;;;;9.75;6.43;;;13.80;75.70;;;;;;5002050;28;20037;-69
2021/09/06 02:22:00;;;;;;;6.70;6.00;;;13.80;75.80;;;;;;5002954;28;20812;-68
2021/09/06 02:24:26;;;;;;;8.10;6.47;;;13.80;75.90;;;;;;5001096;28;20046;-68
2021/09/06 02:26:52;;;;;;;8.60;6.43;;;13.80;76.00;;;;;;4998776;28;20038;-69
2021/09/06 02:29:18;;;;;;;7.18;6.30;;;13.70;76.00;;;;;;5002481;28;20062;-68
2021/09/06 02:31:44;;;;;;;7.22;5.95;;;13.70;76.10;;;;;;5001957;28;20134;-69
2021/09/06 02:34:10;;;;;;;7.22;6.00;;;13.70;76.30;;;;;;5001847;28;20125;-68
2021/09/06 02:36:36;;;;;;;7.43;6.50;;;13.60;76.30;;;;;;5002858;28;20448;-69
2021/09/06 02:39:02;;;;;;;6.80;6.10;;;13.70;76.40;;;;;;5003420;28;20036;-68
2021/09/06 02:41:28;;;;;;;7.57;6.07;;;13.70;76.30;;;;;;4999475;28;20030;-67
2021/09/06 02:43:54;;;;;;;9.50;5.72;;;13.70;76.20;;;;;;5002240;28;20377;-68
2021/09/06 02:46:19;;;;;;;6.50;5.80;;;13.60;76.10;;;;;;5001958;28;20033;-69
2021/09/06 02:48:45;;;;;;;8.55;5.90;;;13.60;76.10;;;;;;5002663;28;20046;-69
2021/09/06 02:51:11;;;;;;;7.53;6.00;;;13.60;76.10;;;;;;5003504;28;20031;-68
2021/09/06 02:53:37;;;;;;;7.70;5.63;;;13.60;76.10;;;;;;5003359;28;20629;-69
2021/09/06 02:56:02;;;;;;;8.15;5.85;;;13.60;76.10;;;;;;5000824;28;20030;-69
2021/09/06 02:58:28;;;;;;;6.72;6.03;;;13.70;76.10;;;;;;5002363;28;20030;-68
2021/09/06 03:00:54;;;;;;;7.20;6.32;;;13.70;76.00;;;;;;5002400;28;20025;-67
2021/09/06 03:03:21;;;;;;;7.47;6.40;;;13.70;75.90;;;;;;5000522;28;20149;-67
2021/09/06 03:05:46;;;;;;;9.38;6.28;;;13.70;75.80;;;;;;5001746;28;20034;-69
2021/09/06 03:08:12;;;;;;;6.50;5.72;;;13.70;75.70;;;;;;5000081;28;20404;-68
2021/09/06 03:10:38;;;;;;;6.97;6.20;;;13.70;75.60;;;;;;5000236;28;20034;-67
2021/09/06 03:13:03;;;;;;;8.80;6.10;;;13.70;75.50;;;;;;4999578;28;20583;-69
2021/09/06 03:15:29;;;;;;;6.13;5.53;;;13.60;75.40;;;;;;5000718;28;20046;-68
2021/09/06 03:17:55;;;;;;;6.10;5.32;;;13.60;75.40;;;;;;5002805;28;20041;-69
2021/09/06 03:20:20;;;;;;;6.00;5.25;;;13.60;76.30;;;;;;4999123;28;20038;-69
2021/09/06 03:22:46;;;;;;;7.57;5.60;;;13.60;75.40;;;;;;5000330;28;20069;-68
2021/09/06 03:25:12;;;;;;;6.25;5.65;;;13.60;75.30;;;;;;4999925;28;20041;-68
2021/09/06 03:27:38;;;;;;;7.32;5.38;;;13.50;75.20;;;;;;5002529;28;20026;-68
2021/09/06 03:30:04;;;;;;;6.38;5.32;;;13.60;75.20;;;;;;4999644;28;20113;-68
2021/09/06 03:32:30;;;;;;;6.78;5.60;;;13.60;75.20;;;;;;4999119;28;20034;-69
2021/09/06 03:34:55;;;;;;;7.70;5.78;;;13.50;75.10;;;;;;4999569;28;20492;-68
2021/09/06 03:37:21;;;;;;;6.55;5.75;;;13.50;75.20;;;;;;4997855;28;20187;-68
2021/09/06 03:39:47;;;;;;;7.22;5.88;;;13.50;75.30;;;;;;5000159;28;20989;-68
2021/09/06 03:42:13;;;;;;;6.85;5.90;;;13.40;75.30;;;;;;4998721;28;20030;-68
2021/09/06 03:44:39;;;;;;;6.85;5.75;;;13.40;75.30;;;;;;4998653;28;20057;-68
2021/09/06 03:47:04;;;;;;;8.23;6.03;;;13.40;75.40;;;;;;4998119;28;20035;-67
2021/09/06 03:49:30;;;;;;;8.57;5.95;;;13.40;75.40;;;;;;4999343;28;20046;-68
2021/09/06 03:51:55;;;;;;;8.05;6.68;;;13.40;75.40;;;;;;5000006;28;20026;-69
2021/09/06 03:54:21;;;;;;;8.85;6.07;;;13.30;75.40;;;;;;5001455;28;20579;-68
2021/09/06 03:56:46;;;;;;;7.90;6.25;;;13.40;75.40;;;;;;4999525;28;20038;-67
2021/09/06 03:59:12;;;;;;;7.75;6.60;;;13.30;75.30;;;;;;4999028;28;21727;-68
2021/09/06 04:01:38;;;;;;;7.60;6.22;;;13.30;75.30;;;;;;4997455;28;20105;-68
2021/09/06 04:04:04;;;;;;;8.15;6.68;;;13.30;75.50;;;;;;4997725;28;20037;-68
2021/09/06 04:06:29;;;;;;;8.75;6.88;;;13.20;75.50;;;;;;4996239;28;20091;-68
2021/09/06 04:08:55;;;;;;;8.13;6.95;;;13.20;75.60;;;;;;4997874;28;20108;-69
2021/09/06 04:11:21;;;;;;;7.07;6.10;;;13.10;75.70;;;;;;4996597;28;20026;-68
2021/09/06 04:13:47;;;;;;;7.45;6.13;;;13.10;75.90;;;;;;4998219;28;20033;-67
2021/09/06 04:16:13;;;;;;;8.07;6.75;;;13.10;75.90;;;;;;4999344;28;20061;-68
2021/09/06 04:18:39;;;;;;;7.18;6.13;;;13.10;76.00;;;;;;4999808;28;20091;-68
2021/09/06 04:21:05;;;;;;;7.28;6.10;;;13.10;76.00;;;;;;5002625;28;20030;-68
2021/09/06 04:23:31;;;;;;;7.32;6.22;;;13.00;75.90;;;;;;4998845;28;20504;-68
2021/09/06 04:25:56;;;;;;;8.63;6.72;;;13.00;75.80;;;;;;4999748;28;20045;-68
2021/09/06 04:28:22;;;;;;;8.40;6.47;;;13.00;75.80;;;;;;4999261;28;20026;-67
2021/09/06 04:30:48;;;;;;;8.88;6.25;;;13.00;75.70;;;;;;4999641;28;20045;-68
2021/09/06 04:33:13;;;;;;;6.85;6.15;;;13.00;75.80;;;;;;4996694;28;20045;-64
2021/09/06 04:35:39;;;;;;;8.32;6.03;;;13.00;75.80;;;;;;5001933;28;20034;-66
2021/09/06 04:38:04;;;;;;;9.40;6.05;;;13.00;76.60;;;;;;4999556;28;20030;-67
2021/09/06 04:40:30;;;;;;;7.25;6.05;;;12.90;75.70;;;;;;4998191;28;20041;-68
2021/09/06 04:42:56;;;;;;;8.55;6.45;;;12.90;75.70;;;;;;5000897;28;20405;-68
2021/09/06 04:45:21;;;;;;;8.32;6.68;;;12.90;75.60;;;;;;5001508;28;20049;-67
2021/09/06 04:47:47;;;;;;;10.95;6.50;;;12.90;75.60;;;;;;5000195;28;20022;-69
2021/09/06 04:50:13;;;;;;;10.90;7.40;;;12.90;75.60;;;;;;4997629;28;20041;-69
2021/09/06 04:52:38;;;;;;;9.93;7.35;;;12.90;75.70;;;;;;4999937;28;20393;-68
2021/09/06 04:55:04;;;;;;;9.68;6.65;;;12.80;75.80;;;;;;4996765;28;20147;-68
2021/09/06 04:57:30;;;;;;;12.77;7.45;;;12.80;75.90;;;;;;5000703;28;20057;-68
2021/09/06 04:59:56;;;;;;;11.77;7.05;;;12.80;76.00;;;;;;5001274;28;20508;-68
2021/09/06 05:02:21;;;;;;;9.93;7.15;;;12.80;76.00;;;;;;4999796;28;20494;-68
2021/09/06 05:04:47;;;;;;;10.48;6.55;;;12.70;76.10;;;;;;4999901;28;20045;-69
2021/09/06 05:07:12;;;;;;;9.15;6.85;;;12.70;76.30;;;;;;4998469;28;20038;-68
2021/09/06 05:09:38;;;;;;;7.82;6.68;;;12.70;76.30;;;;;;4999221;28;20042;-68
2021/09/06 05:12:04;;;;;;;9.43;6.93;;;12.70;76.50;;;;;;4999171;28;20034;-69
2021/09/06 05:14:29;;;;;;;19.42;12.40;;;12.70;76.50;;;;;;4999327;28;20040;-68
2021/09/06 05:16:55;;;;;;;20.50;11.02;;;12.70;76.60;;;;;;4999791;28;20073;-68
2021/09/06 05:19:21;;;;;;;16.95;11.70;;;12.80;76.70;;;;;;4999833;28;20045;-67
2021/09/06 05:21:47;;;;;;;22.88;12.85;;;12.80;76.60;;;;;;5000711;28;20135;-68
2021/09/06 05:24:12;;;;;;;18.90;11.25;;;12.80;76.70;;;;;;4999701;28;20516;-68
2021/09/06 05:26:38;;;;;;;21.02;12.45;;;12.80;76.60;;;;;;4999757;28;20038;-68
2021/09/06 05:29:04;;;;;;;20.70;13.98;;;12.80;76.60;;;;;;5000661;28;20089;-68
2021/09/06 05:31:29;;;;;;;18.73;13.10;;;12.80;76.70;;;;;;5000117;28;20026;-68
2021/09/06 05:33:55;;;;;;;17.15;12.77;;;12.80;76.80;;;;;;4999886;28;20116;-68
2021/09/06 05:36:21;;;;;;;19.08;11.90;;;12.80;76.90;;;;;;5000064;28;20039;-68
2021/09/06 05:38:46;;;;;;;20.25;11.07;;;12.90;77.00;;;;;;5004333;28;20041;-69
2021/09/06 05:41:15;;;;;;;16.15;9.85;;;12.90;77.00;;;;;;5003707;28;20576;-68
2021/09/06 05:43:41;;;;;;;13.18;9.55;;;12.90;77.00;;;;;;5005113;28;20060;-69
2021/09/06 05:46:06;;;;;;;15.02;9.20;;;12.90;77.20;;;;;;5003849;28;20101;-68
2021/09/06 05:48:32;;;;;;;12.80;8.40;;;12.90;77.30;;;;;;5004306;28;20030;-68
2021/09/06 05:50:57;;;;;;;11.68;8.25;;;13.00;77.50;;;;;;4999642;28;20050;-65
2021/09/06 05:53:23;;;;;;;10.93;7.93;;;13.00;77.70;;;;;;5002057;28;20409;-68
2021/09/06 05:55:49;;;;;;;11.20;7.80;;;13.00;77.70;;;;;;5003086;28;20062;-68
2021/09/06 05:58:14;;;;;;;12.50;7.88;;;13.10;77.90;;;;;;5003131;28;20065;-68
2021/09/06 06:00:40;;;;;;;11.38;8.30;;;13.10;77.90;;;;;;5003348;28;20062;-68
2021/09/06 06:03:05;;;;;;;11.63;8.30;;;13.10;77.80;;;;;;5000321;28;20038;-68
2021/09/06 06:05:31;;;;;;;12.40;8.25;;;13.20;77.90;;;;;;5000456;28;20455;-68
2021/09/06 06:07:57;;;;;;;11.30;8.05;;;13.20;78.00;;;;;;5003655;28;20116;-68
2021/09/06 06:10:22;;;;;;;11.00;8.13;;;13.30;78.20;;;;;;5003651;28;20508;-69
2021/09/06 06:12:48;;;;;;;14.50;9.27;;;13.30;78.40;;;;;;5003775;28;20035;-69
2021/09/06 06:15:13;;;;;;;16.90;11.52;;;13.40;78.70;;;;;;5003307;28;20544;-66
2021/09/06 06:17:42;;;;;;;15.43;10.52;;;13.40;78.90;;;;;;5008140;28;20042;-68
2021/09/06 06:20:08;;;;;;;17.20;11.32;;;13.50;79.30;;;;;;5003835;28;20079;-68
2021/09/06 06:22:34;;;;;;;13.10;9.93;;;13.50;79.40;;;;;;5003775;28;20076;-68
2021/09/06 06:25:00;;;;;;;12.15;10.45;;;13.60;79.60;;;;;;5004468;28;20318;-68
2021/09/06 06:27:25;;;;;;;14.25;10.35;;;13.60;79.80;;;;;;5004911;28;20037;-68
2021/09/06 06:29:51;;;;;;;17.67;10.43;;;13.70;80.00;;;;;;5003970;28;20033;-69
2021/09/06 06:32:17;;;;;;;16.40;9.80;;;13.70;80.00;;;;;;5003517;28;20117;-69
2021/09/06 06:34:43;;;;;;;12.90;9.95;;;13.80;79.90;;;;;;5003070;28;20050;-68
2021/09/06 06:37:09;;;;;;;13.90;10.98;;;13.90;79.90;;;;;;5005077;28;20073;-68
2021/09/06 06:39:35;;;;;;;15.05;10.50;;;13.90;80.10;;;;;;5005282;28;20062;-69
2021/09/06 06:42:02;;;;;;;14.40;10.30;;;14.00;80.50;;;;;;5001292;28;20504;-68
2021/09/06 06:44:27;;;;;;;14.48;10.27;;;14.10;80.60;;;;;;5002938;28;20042;-68
2021/09/06 06:46:53;;;;;;;12.75;9.82;;;14.10;80.60;;;;;;5002883;28;20030;-69
2021/09/06 06:49:19;;;;;;;13.35;10.65;;;14.20;80.60;;;;;;5004082;28;20073;-69
2021/09/06 06:51:44;;;;;;;13.23;10.63;;;14.30;80.50;;;;;;5004769;28;20048;-68
2021/09/06 06:54:10;;;;;;;13.50;10.85;;;14.40;80.50;;;;;;5004601;28;20041;-69
2021/09/06 06:56:36;;;;;;;13.73;9.93;;;14.40;80.50;;;;;;5005668;28;20578;-68
2021/09/06 06:59:02;;;;;;;13.02;10.30;;;14.50;80.00;;;;;;5003311;28;20026;-66
2021/09/06 07:01:27;;;;;;;14.23;10.48;;;14.60;79.60;;;;;;4996731;28;20029;-68
2021/09/06 07:03:53;;;;;;;13.23;10.32;;;14.70;79.40;;;;;;4998117;28;20076;-68
2021/09/06 07:06:19;;;;;;;14.07;11.10;;;14.80;79.30;;;;;;4997533;28;20173;-68
2021/09/06 07:08:44;;;;;;;15.38;11.60;;;14.80;79.20;;;;;;5000705;28;20034;-69
2021/09/06 07:11:10;;;;;;;15.80;12.85;;;14.90;79.10;;;;;;5001774;28;20042;-68
2021/09/06 07:13:36;;;;;;;16.90;12.70;;;15.00;79.20;;;;;;5002110;28;20409;-68
2021/09/06 07:16:01;;;;;;;17.83;13.27;;;15.10;78.90;;;;;;5006409;28;20038;-69
2021/09/06 07:18:27;;;;;;;15.48;11.93;;;15.10;78.70;;;;;;5001806;28;20030;-69
2021/09/06 07:20:52;;;;;;;15.60;11.70;;;15.20;78.50;;;;;;5001611;28;20030;-69
2021/09/06 07:23:18;;;;;;;16.50;11.73;;;15.30;78.30;;;;;;5001204;28;20050;-69
2021/09/06 07:25:44;;;;;;;18.48;11.73;;;15.30;78.10;;;;;;5002913;28;20515;-69
2021/09/06 07:28:09;;;;;;;13.35;10.90;;;15.40;78.20;;;;;;5002499;28;20034;-66
2021/09/06 07:30:35;;;;;;;11.60;10.38;;;15.50;78.10;;;;;;5002836;28;20034;-69
2021/09/06 07:33:02;;;;;;;14.23;11.40;;;15.50;77.90;;;;;;5001891;28;20136;-69
2021/09/06 07:35:28;;;;;;;12.57;10.70;;;15.60;78.00;;;;;;4998401;28;20029;-69
2021/09/06 07:37:54;;;;;;;13.80;10.50;;;15.70;77.90;;;;;;5000516;28;20393;-69
2021/09/06 07:40:20;;;;;;;13.73;10.90;;;15.70;77.90;;;;;;5002209;28;20045;-69
2021/09/06 07:42:47;;;;;;;15.55;11.82;;;15.80;77.70;;;;;;5001955;28;20034;-69
2021/09/06 07:45:13;;;;;;;16.40;11.75;;;15.90;77.50;;;;;;5001483;28;20045;-69
2021/09/06 07:47:38;;;;;;;15.82;12.98;;;15.90;77.60;;;;;;5002128;28;20026;-69
2021/09/06 07:50:07;;;;;;;15.65;12.18;;;16.00;77.60;;;;;;5003324;28;20035;-69
2021/09/06 07:52:34;;;;;;;14.45;12.18;;;16.10;77.40;;;;;;5001959;28;20037;-69
2021/09/06 07:55:00;;;;;;;14.18;11.90;;;16.20;77.20;;;;;;5000732;28;20030;-69
2021/09/06 07:57:26;;;;;;;16.48;11.93;;;16.30;77.20;;;;;;5001163;28;20042;-69
2021/09/06 07:59:51;;;;;;;14.50;11.60;;;16.40;77.10;;;;;;5016220;28;20029;-69
2021/09/06 08:02:17;;;;;;;13.80;10.80;;;16.40;76.70;;;;;;5000829;28;20504;-69
2021/09/06 08:04:42;;;;;;;14.35;11.18;;;16.50;76.50;;;;;;5000224;28;20095;-69
2021/09/06 08:07:08;;;;;;;15.57;12.23;;;16.60;76.60;;;;;;5001653;28;20100;-69
2021/09/06 08:09:34;;;;;;;17.95;11.77;;;16.70;76.80;;;;;;5016246;28;20037;-69
2021/09/06 08:11:59;;;;;;;12.85;10.85;;;16.80;76.80;;;;;;5000076;28;20507;-69
2021/09/06 08:14:27;;;;;;;13.73;10.27;;;16.80;76.50;;;;;;5000423;28;20037;-69
2021/09/06 08:16:53;;;;;;;18.17;10.88;;;16.90;76.40;;;;;;5001259;28;20042;-68
2021/09/06 08:19:19;;;;;;;13.55;11.23;;;17.10;76.30;;;;;;5000464;28;20041;-69
2021/09/06 08:21:45;;;;;;;14.32;11.30;;;17.10;75.60;;;;;;5005909;28;20109;-68
2021/09/06 08:24:11;;;;;;;13.07;10.90;;;17.20;75.40;;;;;;5002268;28;20038;-68
2021/09/06 08:26:37;;;;;;;13.35;10.55;;;17.30;75.40;;;;;;5002100;28;20026;-68
2021/09/06 08:29:03;;;;;;;13.73;9.73;;;17.40;75.60;;;;;;4999092;28;20064;-69
2021/09/06 08:31:30;;;;;;;12.57;10.38;;;17.50;75.30;;;;;;5004202;28;20441;-69
2021/09/06 08:33:57;;;;;;;13.98;9.90;;;17.60;75.00;;;;;;5001016;28;20176;-69
2021/09/06 08:36:23;;;;;;;13.13;10.38;;;17.70;74.90;;;;;;5001401;28;20034;-69
2021/09/06 08:38:48;;;;;;;13.20;10.65;;;17.70;74.60;;;;;;5001790;28;20412;-69
2021/09/06 08:41:14;;;;;;;11.82;10.05;;;17.80;74.50;;;;;;5004281;28;20073;-69
2021/09/06 08:43:41;;;;;;;11.30;9.68;;;17.90;74.50;;;;;;5002411;28;20667;-69
2021/09/06 08:46:06;;;;;;;11.27;9.55;;;18.00;74.40;;;;;;5000134;28;20035;-68
2021/09/06 08:48:32;;;;;;;14.55;10.60;;;18.10;74.60;;;;;;5002816;28;20030;-69
2021/09/06 08:50:58;;;;;;;12.57;9.70;;;18.20;74.60;;;;;;5006718;28;20037;-68
2021/09/06 08:53:24;;;;;;;12.13;9.38;;;18.30;74.70;;;;;;5002532;28;20038;-69
2021/09/06 08:55:51;;;;;;;12.77;9.45;;;18.40;74.50;;;;;;5001176;28;20467;-69
2021/09/06 08:58:17;;;;;;;15.23;10.35;;;18.50;74.40;;;;;;5001981;28;20099;-70
2021/09/06 09:00:47;;;;;;;11.82;9.40;;;18.60;74.30;;;;;;4996822;28;20060;-68
2021/09/06 09:03:13;;;;;;;10.15;8.43;;;18.70;73.90;;;;;;5002673;28;20394;-68
2021/09/06 09:05:55;;;;;;;10.93;8.60;;;18.80;73.90;;;;;;5001799;28;20323;-67
2021/09/06 09:08:24;;;;;;;12.98;9.60;;;18.90;73.60;;;;;;5002372;28;20022;-69
2021/09/06 09:10:50;;;;;;;11.68;9.15;;;19.10;73.10;;;;;;5000390;28;20085;-67
2021/09/06 09:13:17;;;;;;;10.30;8.40;;;19.20;73.30;;;;;;4996882;28;20184;-69
2021/09/06 09:15:52;;;;;;;11.52;9.07;;;19.30;73.50;;;;;;4982349;28;20418;-68
2021/09/06 09:18:29;;;;;;;11.02;8.20;;;19.40;72.90;;;;;;4980699;28;20031;-67
2021/09/06 09:21:07;;;;;;;10.38;8.20;;;19.60;72.60;;;;;;5001036;28;20038;-69
2021/09/06 09:23:46;;;;;;;12.35;8.20;;;19.70;72.10;;;;;;5001421;28;20088;-69
2021/09/06 09:26:13;;;;;;;8.30;7.30;;;19.80;71.80;;;;;;5001870;28;20065;-69
2021/09/06 09:28:44;;;;;;;10.52;8.38;;;20.00;71.80;;;;;;5000240;28;20030;-69
2021/09/06 09:31:17;;;;;;;9.27;7.70;;;20.10;71.20;;;;;;5002567;28;20099;-68
2021/09/06 09:33:49;;;;;;;8.38;7.18;;;20.20;70.70;;;;;;5001525;28;20645;-69
2021/09/06 09:36:27;;;;;;;7.88;6.30;;;20.30;70.40;;;;;;5000233;28;20034;-69
2021/09/06 09:38:54;;;;;;;10.38;6.45;;;20.40;70.20;;;;;;5001800;28;20031;-69
2021/09/06 09:41:20;;;;;;;8.20;6.65;;;20.50;70.30;;;;;;5002129;28;20113;-69
2021/09/06 09:43:45;;;;;;;9.38;6.57;;;20.70;70.80;;;;;;5002063;28;20113;-68
2021/09/06 09:46:12;;;;;;;10.27;5.53;;;20.80;69.80;;;;;;5001471;28;20034;-69
2021/09/06 09:48:37;;;;;;;7.03;5.60;;;20.90;69.00;;;;;;5000542;28;20053;-69
2021/09/06 09:51:03;;;;;;;5.72;5.13;;;21.00;68.50;;;;;;5000357;28;20038;-69
2021/09/06 09:53:30;;;;;;;10.73;5.72;;;21.20;67.80;;;;;;4999448;28;20030;-69
2021/09/06 09:55:56;;;;;;;7.43;5.05;;;21.30;66.60;;;;;;5000250;28;20030;-70
2021/09/06 09:58:22;;;;;;;5.95;5.35;;;21.40;67.10;;;;;;5006108;28;20117;-69
2021/09/06 10:00:48;;;;;;;6.50;5.18;;;21.50;65.70;;;;;;5000115;28;20455;-70
2021/09/06 10:03:15;;;;;;;6.05;5.10;;;21.70;65.20;;;;;;5001168;28;20030;-69
2021/09/06 10:05:42;;;;;;;5.70;5.20;;;21.80;64.40;;;;;;5003686;28;20118;-69
2021/09/06 10:08:12;;;;;;;6.13;4.70;;;21.90;64.30;;;;;;4999576;28;20394;-69
2021/09/06 10:10:39;;;;;;;5.60;4.90;;;22.00;63.10;;;;;;4997893;28;20045;-69
2021/09/06 10:13:11;;;;;;;5.13;4.63;;;22.20;62.70;;;;;;4998483;28;20112;-69
2021/09/06 10:15:39;;;;;;;5.80;5.20;;;22.30;61.80;;;;;;4998208;28;20433;-70
2021/09/06 10:18:14;;;;;;;5.35;4.78;;;22.40;61.70;;;;;;5000042;28;20297;-69
2021/09/06 10:20:39;;;;;;;5.47;4.88;;;22.50;60.10;;;;;;4998754;28;20077;-69
2021/09/06 10:23:08;;;;;;;5.55;5.05;;;22.60;61.00;;;;;;5000212;28;20025;-69
2021/09/06 10:25:37;;;;;;;5.10;4.57;;;22.70;60.10;;;;;;5003107;28;20038;-69
2021/09/06 10:28:04;;;;;;;5.43;4.88;;;22.80;59.50;;;;;;5002613;28;20038;-69
2021/09/06 10:30:47;;;;;;;5.28;4.78;;;22.90;59.10;;;;;;5002755;28;20030;-70
2021/09/06 10:33:27;;;;;;;5.53;4.47;;;23.00;57.90;;;;;;5003153;28;20033;-69
2021/09/06 10:36:08;;;;;;;5.03;4.63;;;23.10;57.20;;;;;;5003900;28;20069;-69
2021/09/06 10:38:45;;;;;;;5.65;4.93;;;23.20;57.80;;;;;;5003123;28;20137;-70
2021/09/06 10:41:14;;;;;;;4.65;4.18;;;23.30;57.00;;;;;;5002441;28;20034;-69
2021/09/06 10:43:46;;;;;;;5.60;4.63;;;23.40;57.50;;;;;;5003481;28;20038;-69
2021/09/06 10:46:12;;;;;;;5.45;4.95;;;23.50;56.80;;;;;;5003570;28;20036;-70
2021/09/06 10:48:38;;;;;;;4.80;4.40;;;23.50;57.00;;;;;;5002652;28;20121;-69
2021/09/06 10:51:04;;;;;;;5.40;4.90;;;23.60;57.00;;;;;;5002884;28;20041;-70
2021/09/06 10:53:30;;;;;;;5.20;4.70;;;23.60;56.80;;;;;;5002530;28;20033;-69
2021/09/06 10:55:58;;;;;;;4.60;4.15;;;23.60;56.50;;;;;;5003972;28;20034;-69
2021/09/06 10:58:26;;;;;;;5.03;4.63;;;23.80;56.30;;;;;;5001786;28;20740;-69
2021/09/06 11:00:54;;;;;;;5.55;4.57;;;23.80;56.00;;;;;;5005436;28;20137;-69
2021/09/06 11:03:22;;;;;;;5.13;4.63;;;23.80;55.80;;;;;;4999758;28;20050;-69
2021/09/06 11:05:58;;;;;;;5.00;4.50;;;23.80;56.00;;;;;;5006217;28;20108;-69
2021/09/06 11:08:28;;;;;;;5.25;4.65;;;23.90;55.10;;;;;;5016421;28;20034;-69
2021/09/06 11:10:55;;;;;;;5.15;4.65;;;23.90;55.00;;;;;;5001037;28;20037;-70
2021/09/06 11:13:21;;;;;;;4.90;4.40;;;24.00;55.50;;;;;;5001992;28;20041;-69
2021/09/06 11:15:47;;;;;;;6.00;4.20;;;24.00;55.50;;;;;;5001976;28;20030;-70
2021/09/06 11:18:13;;;;;;;4.95;4.05;;;24.10;55.00;;;;;;5001820;28;20110;-69
2021/09/06 11:20:39;;;;;;;4.80;4.30;;;24.20;54.90;;;;;;5001702;28;20121;-67
2021/09/06 11:23:09;;;;;;;4.88;3.97;;;24.30;54.00;;;;;;5001438;28;20106;-70
2021/09/06 11:25:38;;;;;;;4.95;4.45;;;24.30;52.90;;;;;;5003580;28;20436;-70
2021/09/06 11:28:14;;;;;;;4.65;4.00;;;24.30;52.20;;;;;;5003136;28;20026;-70
2021/09/06 11:30:42;;;;;;;5.18;3.83;;;24.40;51.60;;;;;;5002690;28;20113;-70
2021/09/06 11:33:09;;;;;;;4.90;4.13;;;24.40;52.30;;;;;;5000292;28;20416;-70
2021/09/06 11:35:40;;;;;;;4.30;3.90;;;24.40;52.50;;;;;;4999390;28;20025;-69
2021/09/06 11:38:09;;;;;;;4.55;4.10;;;24.50;52.40;;;;;;5002566;28;20062;-70
2021/09/06 11:40:36;;;;;;;4.95;4.45;;;24.60;52.20;;;;;;5002660;28;20036;-69
2021/09/06 11:43:03;;;;;;;4.07;3.72;;;24.60;51.60;;;;;;5001306;28;20061;-70
2021/09/06 11:45:30;;;;;;;4.45;4.05;;;24.70;51.90;;;;;;5002677;28;20029;-69
2021/09/06 11:48:02;;;;;;;4.60;4.20;;;24.70;51.40;;;;;;5002252;28;20061;-69
2021/09/06 11:50:39;;;;;;;4.47;3.97;;;24.70;50.70;;;;;;5000872;28;20033;-69
2021/09/06 11:53:07;;;;;;;5.30;4.30;;;24.70;50.40;;;;;;5000256;28;20026;-70
2021/09/06 11:55:33;;;;;;;6.18;4.32;;;24.80;51.40;;;;;;5000781;28;20033;-69
2021/09/06 11:58:09;;;;;;;4.50;4.03;;;24.80;51.00;;;;;;5001949;28;20038;-69
2021/09/06 12:00:38;;;;;;;4.22;3.83;;;24.90;50.60;;;;;;5000468;28;20149;-70
2021/09/06 12:03:05;;;;;;;5.30;3.88;;;24.90;50.90;;;;;;5015033;28;20026;-69
2021/09/06 12:05:48;;;;;;;4.90;4.10;;;25.00;50.90;;;;;;5001114;28;20022;-69
2021/09/06 12:08:16;;;;;;;4.85;4.00;;;25.00;50.20;;;;;;5001263;28;20373;-69
2021/09/06 12:10:44;;;;;;;4.40;4.00;;;25.10;50.50;;;;;;5000585;28;20113;-69
2021/09/06 12:13:21;;;;;;;4.85;3.70;;;25.10;50.20;;;;;;5001050;28;20044;-70
2021/09/06 12:16:01;;;;;;;5.28;3.97;;;25.10;50.60;;;;;;5001104;28;20361;-69
2021/09/06 12:18:40;;;;;;;4.70;3.83;;;25.20;49.40;;;;;;4999656;28;21181;-69
2021/09/06 12:21:12;;;;;;;4.50;4.10;;;25.20;48.30;;;;;;5001099;28;20026;-70
2021/09/06 12:23:40;;;;;;;5.72;4.55;;;25.20;48.70;;;;;;5000851;28;20428;-70
2021/09/06 12:26:07;;;;;;;4.28;3.88;;;25.30;49.20;;;;;;5001239;28;20535;-70
2021/09/06 12:28:33;;;;;;;4.50;4.10;;;25.30;49.10;;;;;;5001463;28;20061;-70
2021/09/06 12:31:05;;;;;;;5.80;4.05;;;25.30;49.00;;;;;;5001501;28;20034;-69
2021/09/06 12:33:31;;;;;;;4.10;3.70;;;25.30;47.50;;;;;;5001391;28;20042;-70
2021/09/06 12:36:01;;;;;;;4.32;3.72;;;25.30;48.20;;;;;;5000176;28;20434;-69
2021/09/06 12:38:29;;;;;;;4.90;4.25;;;25.30;48.10;;;;;;5001413;28;20492;-69